Time;durP1;ratioP1;P1;durP2;ratioP2;P2;SDS_P1;SDS_P2;PMS_P1;PMS_P2;Temp;Humidity;BMP_temperature;BMP_pressure;BME280_temperature;BME280_humidity;BME280_pressure;Samples;Min_cycle;Max_cycle;Signal;HPM_P1;HPM_P2
2022/02/22 00:05:49;;;;;;;9.33;3.00;;;;;;;1.90;67.38;97599.20;4244511;82;21067;-91
2022/02/22 00:11:50;;;;;;;9.13;3.35;;;;;;;1.98;67.52;97594.17;4244566;82;21057;-89
2022/02/22 00:17:51;;;;;;;8.63;2.83;;;;;;;1.97;67.77;97598.02;4244532;82;21079;-90
2022/02/22 00:23:53;;;;;;;9.90;2.72;;;;;;;2.00;68.19;97600.57;4245199;82;21670;-90
2022/02/22 00:29:54;;;;;;;7.95;2.67;;;;;;;1.92;68.35;97606.94;4191727;82;21056;-91
2022/02/22 00:35:56;;;;;;;8.48;2.17;;;;;;;1.84;68.57;97608.70;4124494;85;21071;-90
2022/02/22 00:41:58;;;;;;;6.63;2.27;;;;;;;1.74;68.67;97615.21;4172708;84;21040;-89
2022/02/22 00:47:59;;;;;;;7.53;2.40;;;;;;;1.67;68.81;97605.03;4174304;84;21040;-90
2022/02/22 00:54:01;;;;;;;7.00;1.98;;;;;;;1.75;68.95;97615.42;4114327;85;21109;-90
2022/02/22 01:00:05;;;;;;;5.58;2.12;;;;;;;1.81;68.92;97618.06;4118850;85;21063;-90
2022/02/22 01:06:06;;;;;;;4.90;1.98;;;;;;;1.88;69.08;97626.33;4160339;85;21094;-89
2022/02/22 01:12:09;;;;;;;9.18;2.10;;;;;;;2.05;69.21;97621.89;4153721;84;21095;-90
2022/02/22 01:18:10;;;;;;;6.87;1.90;;;;;;;2.35;69.76;97634.51;4166724;84;21225;-90
2022/02/22 01:24:11;;;;;;;4.15;1.72;;;;;;;2.59;69.99;97636.95;4173391;84;21060;-89
2022/02/22 01:30:13;;;;;;;4.22;1.65;;;;;;;2.68;70.18;97637.52;4231359;82;21068;-90
2022/02/22 01:36:14;;;;;;;3.83;1.32;;;;;;;2.73;70.38;97646.70;4245677;82;21484;-90
2022/02/22 01:42:16;;;;;;;6.97;1.80;;;;;;;2.90;70.29;97653.02;4246788;82;21544;-90
2022/02/22 01:48:17;;;;;;;7.58;2.55;;;;;;;3.01;70.42;97652.65;4244826;82;21654;-91
2022/02/22 01:54:22;;;;;;;9.78;2.45;;;;;;;3.10;70.26;97663.25;4245362;82;21103;-89
2022/02/22 02:00:26;;;;;;;8.23;2.90;;;;;;;3.19;70.29;97670.56;4244717;82;22070;-91
2022/02/22 02:06:26;;;;;;;7.22;2.15;;;;;;;3.27;70.35;97669.56;4247439;82;21079;-90
2022/02/22 02:12:37;;;;;;;5.20;2.30;;;;;;;3.39;70.26;97683.47;4247018;82;21610;-89
2022/02/22 02:18:39;;;;;;;10.78;2.52;;;;;;;3.57;70.38;97694.05;4246661;82;21501;-90
2022/02/22 02:24:40;;;;;;;8.95;2.80;;;;;;;3.63;70.32;97701.52;4246910;82;21737;-91
2022/02/22 02:30:42;;;;;;;6.75;2.45;;;;;;;3.63;70.21;97720.45;4228428;82;21069;-90
2022/02/22 02:36:44;;;;;;;11.40;3.17;;;;;;;3.63;70.25;97725.08;4222501;83;21012;-90
2022/02/22 02:42:45;;;;;;;10.72;2.72;;;;;;;3.68;70.53;97733.67;4258927;82;21590;-90
2022/02/22 02:48:46;;;;;;;9.45;2.62;;;;;;;3.63;70.58;97743.46;4258976;82;21565;-89
2022/02/22 02:54:47;;;;;;;8.25;3.17;;;;;;;3.60;70.62;97756.92;4261148;82;21629;-90
2022/02/22 03:00:49;;;;;;;12.30;3.20;;;;;;;3.66;70.93;97764.95;4259855;82;21627;-91
2022/02/22 03:06:50;;;;;;;6.05;2.10;;;;;;;3.81;70.97;97766.20;4258608;82;21113;-91
2022/02/22 03:12:52;;;;;;;6.67;2.02;;;;;;;4.00;71.13;97787.02;4233305;81;189547;-90
2022/02/22 03:18:53;;;;;;;6.35;1.87;;;;;;;4.12;71.31;97811.23;4191229;83;21070;-89
2022/02/22 03:24:55;;;;;;;4.50;1.50;;;;;;;4.19;71.54;97822.18;4189883;83;21693;-90
2022/02/22 03:30:56;;;;;;;6.62;1.67;;;;;;;4.24;71.78;97834.87;4248725;81;21146;-90
2022/02/22 03:36:57;;;;;;;5.05;1.72;;;;;;;4.28;71.87;97845.18;4265701;81;21417;-91
2022/02/22 03:42:59;;;;;;;4.42;1.87;;;;;;;4.26;72.14;97853.47;4271502;81;21053;-90
2022/02/22 03:49:00;;;;;;;6.70;2.27;;;;;;;4.24;73.14;97866.02;4267630;81;22586;-89
2022/02/22 03:55:03;;;;;;;8.90;2.70;;;;;;;4.16;73.34;97879.78;4269499;81;22310;-90
2022/02/22 04:01:04;;;;;;;4.33;2.50;;;;;;;4.07;73.72;97898.95;4266163;81;21080;-90
2022/02/22 04:07:05;;;;;;;4.62;2.10;;;;;;;3.99;74.23;97905.41;4268875;81;21477;-91
2022/02/22 04:13:07;;;;;;;4.70;1.87;;;;;;;3.94;74.53;97923.84;4272000;81;21647;-91
2022/02/22 04:19:08;;;;;;;3.40;2.22;;;;;;;3.92;75.35;97935.59;4268553;81;21516;-91
2022/02/22 04:25:10;;;;;;;5.20;1.92;;;;;;;3.86;75.06;97943.79;4268781;81;21556;-90
2022/02/22 04:31:11;;;;;;;3.67;1.40;;;;;;;3.82;75.12;97963.25;4284512;81;21105;-91
2022/02/22 04:37:15;;;;;;;2.85;1.35;;;;;;;3.79;75.52;97972.08;4203092;83;21110;-92
2022/02/22 04:43:16;;;;;;;3.47;2.05;;;;;;;3.75;75.48;97982.83;4161929;83;21100;-90
2022/02/22 04:49:17;;;;;;;8.30;3.60;;;;;;;3.76;75.78;97994.45;4288669;81;21125;-90
2022/02/22 04:55:20;;;;;;;6.90;3.58;;;;;;;3.77;75.86;98013.61;4290288;81;22030;-91
2022/02/22 05:01:24;;;;;;;10.03;4.03;;;;;;;3.76;76.61;98024.23;4287467;81;21118;-90
2022/02/22 05:07:26;;;;;;;7.75;4.55;;;;;;;3.69;77.04;98035.67;4284455;81;21074;-90
2022/02/22 05:13:27;;;;;;;7.17;4.70;;;;;;;3.62;77.30;98061.21;4292295;81;21097;-91
2022/02/22 05:19:29;;;;;;;8.48;5.12;;;;;;;3.54;77.64;98078.41;4290581;81;21050;-90
2022/02/22 05:25:30;;;;;;;7.15;4.55;;;;;;;3.47;78.77;98092.34;4287053;81;21645;-90
2022/02/22 05:31:31;;;;;;;10.63;4.00;;;;;;;3.38;78.33;98111.48;4287650;81;21089;-90
2022/02/22 05:37:34;;;;;;;10.35;3.37;;;;;;;3.28;78.06;98128.21;4286920;81;21099;-90
2022/02/22 05:43:35;;;;;;;9.95;3.40;;;;;;;3.15;78.21;98132.11;4290995;81;21610;-90
2022/02/22 05:49:37;;;;;;;9.40;2.75;;;;;;;3.00;78.12;98155.86;4287069;81;21030;-91
2022/02/22 05:55:39;;;;;;;5.40;2.80;;;;;;;2.81;78.05;98165.17;4292492;81;21933;-90
2022/02/22 06:01:45;;;;;;;14.65;4.50;;;;;;;2.69;78.08;98172.75;4291926;81;21319;-90
2022/02/22 06:07:46;;;;;;;9.45;4.33;;;;;;;2.57;78.32;98172.03;4287588;81;21094;-91
2022/02/22 06:13:48;;;;;;;10.23;4.12;;;;;;;2.43;78.52;98186.45;4289912;82;21011;-90
2022/02/22 06:19:50;;;;;;;13.60;4.97;;;;;;;2.35;78.71;98205.71;4291849;81;21018;-90
2022/02/22 06:25:51;;;;;;;11.22;4.50;;;;;;;2.37;78.92;98208.07;4289009;81;21015;-90
2022/02/22 06:31:53;;;;;;;8.43;3.75;;;;;;;2.44;78.91;98221.25;4264608;81;21631;-90
2022/02/22 06:37:54;;;;;;;10.48;3.90;;;;;;;2.55;79.30;98244.53;4260221;82;21061;-90
2022/02/22 06:43:56;;;;;;;13.28;3.87;;;;;;;2.67;79.64;98233.69;4259449;82;21068;-91
2022/02/22 06:49:57;;;;;;;10.85;3.42;;;;;;;2.79;79.97;98247.95;4257657;82;21077;-90
2022/02/22 06:55:59;;;;;;;9.03;4.17;;;;;;;2.96;79.45;98252.32;4260772;82;21049;-90
2022/02/22 07:02:00;;;;;;;9.03;3.60;;;;;;;3.09;79.39;98259.24;4258786;82;21075;-90
2022/02/22 07:08:02;;;;;;;8.98;3.12;;;;;;;3.29;79.32;98262.31;4259318;82;21030;-91
2022/02/22 07:14:03;;;;;;;9.48;2.87;;;;;;;3.44;78.93;98268.91;4260093;82;21081;-89
2022/02/22 07:20:08;;;;;;;10.98;3.30;;;;;;;3.54;78.60;98259.72;4259872;82;21184;-90
2022/02/22 07:26:09;;;;;;;14.00;4.08;;;;;;;3.94;78.56;98269.08;4258453;82;21414;-91
2022/02/22 07:32:11;;;;;;;8.70;3.50;;;;;;;4.16;78.24;98276.60;4282455;81;21088;-89
2022/02/22 07:38:13;;;;;;;11.30;3.33;;;;;;;4.66;77.58;98285.56;4288069;81;21081;-89
2022/02/22 07:44:14;;;;;;;14.30;3.42;;;;;;;4.73;76.91;98300.63;4288175;81;21429;-90
2022/02/22 07:50:16;;;;;;;8.23;2.22;;;;;;;4.79;76.47;98306.58;4288555;81;21089;-90
2022/02/22 07:56:17;;;;;;;8.85;2.77;;;;;;;4.83;76.42;98322.34;4288685;81;21007;-91
2022/02/22 08:02:19;;;;;;;9.85;3.00;;;;;;;4.86;75.96;98333.84;4287015;81;21055;-91
2022/02/22 08:08:20;;;;;;;14.73;3.27;;;;;;;4.84;76.09;98342.88;4287374;81;21067;-91
2022/02/22 08:14:21;;;;;;;8.63;3.30;;;;;;;4.83;75.89;98357.59;4289491;81;21560;-91
2022/02/22 08:20:23;;;;;;;10.65;3.67;;;;;;;4.76;75.87;98364.22;4287127;81;21093;-90
2022/02/22 08:26:24;;;;;;;10.90;3.70;;;;;;;4.72;75.73;98378.25;4288430;81;21326;-90
2022/02/22 08:32:25;;;;;;;14.15;3.60;;;;;;;4.73;75.73;98378.45;4270553;81;21670;-91
2022/02/22 08:38:27;;;;;;;8.90;2.70;;;;;;;4.92;75.66;98378.53;4266451;81;21008;-90
2022/02/22 08:44:29;;;;;;;6.08;2.58;;;;;;;5.18;74.98;98388.25;4295354;80;31154;-90
2022/02/22 08:50:31;;;;;;;12.80;3.27;;;;;;;5.69;74.75;98394.38;4319907;81;21035;-90
2022/02/22 08:56:32;;;;;;;11.48;3.90;;;;;;;5.74;74.80;98404.95;4319348;81;21052;-90
2022/02/22 09:02:33;;;;;;;8.50;3.15;;;;;;;5.46;74.48;98408.44;4283884;81;29427;-91
2022/02/22 09:08:34;;;;;;;11.73;4.72;;;;;;;5.39;74.40;98419.12;4285409;82;21074;-90
2022/02/22 09:14:36;;;;;;;10.15;3.37;;;;;;;5.48;74.75;98419.14;4280477;82;21077;-90
2022/02/22 09:20:38;;;;;;;6.28;3.17;;;;;;;5.75;74.40;98416.02;4181182;83;21073;-90
2022/02/22 09:26:39;;;;;;;11.48;3.72;;;;;;;6.03;74.54;98432.36;4160932;85;21089;-90
2022/02/22 09:32:47;;;;;;;10.63;4.33;;;;;;;6.81;75.09;98414.75;4198121;83;21070;-92
2022/02/22 09:38:49;;;;;;;12.33;4.30;;;;;;;8.56;73.82;98423.14;4191919;83;21512;-91
2022/02/22 09:44:51;;;;;;;19.73;5.10;;;;;;;8.66;71.80;98422.47;4141044;86;21058;-91
2022/02/22 09:50:52;;;;;;;14.80;6.67;;;;;;;7.98;68.46;98432.41;4237276;83;21557;-91
2022/02/22 09:57:00;;;;;;;9.53;2.90;;;;;;;7.15;70.31;98446.40;4233461;83;22407;-90
2022/02/22 10:02:59;;;;;;;9.85;4.65;;;;;;;7.37;70.83;98457.83;4236322;82;21576;-91
2022/02/22 10:09:00;;;;;;;12.20;3.95;;;;;;;7.25;70.60;98458.81;4232673;83;21474;-92
2022/02/22 10:15:06;;;;;;;12.73;3.47;;;;;;;7.10;70.29;98447.50;4244330;83;21616;-91
2022/02/22 10:21:07;;;;;;;12.00;4.60;;;;;;;6.92;70.37;98453.80;4237357;82;21113;-91
2022/02/22 10:27:09;;;;;;;21.05;8.80;;;;;;;6.70;70.36;98462.19;4236763;83;21085;-90
2022/02/22 10:33:23;;;;;;;12.43;5.95;;;;;;;6.70;70.55;98470.34;4222650;83;22258;-91
2022/02/22 10:39:25;;;;;;;12.88;4.70;;;;;;;7.01;69.97;98475.55;4208677;83;21103;-92
2022/02/22 10:45:27;;;;;;;8.18;2.90;;;;;;;6.99;69.55;98473.75;4219135;83;21066;-91
2022/02/22 10:51:38;;;;;;;9.25;2.75;;;;;;;6.86;69.24;98483.83;4216980;83;21078;-90
2022/02/22 10:57:40;;;;;;;11.57;2.85;;;;;;;6.81;69.22;98489.56;4215064;83;21091;-90
2022/02/22 11:03:46;;;;;;;11.40;3.12;;;;;;;6.78;69.14;98490.29;4218657;83;21128;-91
2022/02/22 11:09:49;;;;;;;7.03;2.83;;;;;;;7.12;68.95;98491.48;4218946;83;21066;-91
2022/02/22 11:15:51;;;;;;;8.20;1.90;;;;;;;7.18;68.57;98490.02;4218577;83;21089;-92
2022/02/22 11:21:56;;;;;;;9.68;2.25;;;;;;;7.27;67.28;98496.55;4230456;83;22350;-89
2022/02/22 11:28:10;;;;;;;12.50;2.95;;;;;;;7.52;67.78;98494.44;4237205;83;21114;-91
2022/02/22 11:34:13;;;;;;;9.55;3.95;;;;;;;7.92;67.21;98500.06;4212387;83;21456;-91
2022/02/22 11:40:27;;;;;;;10.88;3.42;;;;;;;7.61;66.37;98505.84;4213164;84;21073;-90
2022/02/22 11:46:44;;;;;;;6.55;2.62;;;;;;;7.20;66.50;98522.31;4208027;84;21102;-91
2022/02/22 11:52:53;;;;;;;6.47;2.10;;;;;;;7.08;67.30;98530.67;4228841;84;22462;-91
2022/02/22 11:58:56;;;;;;;5.42;2.22;;;;;;;7.01;67.62;98544.94;4222123;84;21554;-91
2022/02/22 12:05:00;;;;;;;7.05;3.00;;;;;;;7.19;68.07;98536.49;4208760;84;21042;-91
2022/02/22 12:11:06;;;;;;;13.18;3.45;;;;;;;7.50;68.33;98534.86;4228464;84;21066;-91
2022/02/22 12:17:10;;;;;;;12.43;4.05;;;;;;;7.64;68.14;98545.20;4230614;84;22535;-90
2022/02/22 12:23:20;;;;;;;10.85;3.62;;;;;;;7.54;68.37;98538.45;4226844;84;21034;-92
2022/02/22 12:29:23;;;;;;;6.92;3.27;;;;;;;7.58;68.55;98542.59;4227093;83;21609;-91
2022/02/22 12:35:34;;;;;;;7.83;3.02;;;;;;;7.88;68.07;98546.93;4189362;84;21085;-91
2022/02/22 12:41:39;;;;;;;10.98;3.02;;;;;;;8.03;67.37;98554.14;4180180;83;21045;-91
2022/02/22 12:47:41;;;;;;;6.65;3.12;;;;;;;7.87;66.95;98569.10;4187942;83;21068;-90
2022/02/22 12:53:42;;;;;;;7.90;3.22;;;;;;;7.16;68.26;98609.36;4185317;83;21599;-92
2022/02/22 12:59:44;;;;;;;5.78;2.65;;;;;;;6.06;70.56;98625.16;4170653;84;21085;-91
2022/02/22 13:05:47;;;;;;;6.17;2.90;;;;;;;5.33;71.97;98633.59;4187081;83;21044;-91
2022/02/22 13:11:55;;;;;;;5.78;3.17;;;;;;;4.89;73.37;98636.12;4172128;84;21056;-90
2022/02/22 13:17:57;;;;;;;6.53;3.77;;;;;;;4.99;74.63;98634.24;4173397;83;21101;-91
2022/02/22 13:24:05;;;;;;;14.95;5.53;;;;;;;5.25;75.50;98629.12;4171612;83;21493;-90
2022/02/22 13:30:09;;;;;;;9.93;5.28;;;;;;;5.35;75.71;98636.76;4167560;83;21087;-90
2022/02/22 13:36:14;;;;;;;8.10;3.70;;;;;;;5.36;77.02;98650.54;4218689;82;21200;-91
2022/02/22 13:42:18;;;;;;;23.70;7.17;;;;;;;5.13;76.50;98664.47;4240138;82;21081;-90
2022/02/22 13:48:19;;;;;;;19.48;6.37;;;;;;;4.95;76.95;98674.83;4232143;83;21087;-90
2022/02/22 13:54:30;;;;;;;18.60;5.50;;;;;;;4.93;77.46;98683.90;4241037;83;21545;-92
2022/02/22 14:00:32;;;;;;;15.43;4.97;;;;;;;4.96;77.89;98688.63;4226886;83;22098;-91
2022/02/22 14:06:34;;;;;;;20.05;9.30;;;;;;;4.94;78.15;98690.89;4237925;82;21383;-91
2022/02/22 14:12:35;;;;;;;23.45;6.50;;;;;;;4.88;78.00;98699.05;4243073;83;22559;-90
2022/02/22 14:18:37;;;;;;;25.05;6.85;;;;;;;4.98;78.38;98711.34;4239496;83;22234;-92
2022/02/22 14:24:38;;;;;;;20.20;8.10;;;;;;;4.99;78.68;98715.63;4250585;83;21170;-91
2022/02/22 14:30:39;;;;;;;24.60;8.15;;;;;;;5.05;78.72;98718.31;4235388;83;21656;-90
2022/02/22 14:36:41;;;;;;;23.40;7.80;;;;;;;5.01;78.67;98731.80;4255325;81;28492;-90
2022/02/22 14:42:47;;;;;;;25.70;7.62;;;;;;;5.01;78.64;98730.44;4399019;80;21058;-90
2022/02/22 14:48:45;;;;;;;33.55;9.63;;;;;;;5.01;78.64;98739.94;4394847;80;21031;-90
2022/02/22 14:54:47;;;;;;;28.62;10.63;;;;;;;4.95;78.86;98752.72;4315798;81;21962;-90
2022/02/22 15:00:48;;;;;;;22.50;10.05;;;;;;;4.85;78.94;98767.55;4325979;81;21509;-90
2022/02/22 15:06:49;;;;;;;30.72;11.03;;;;;;;4.76;78.96;98769.61;4239748;82;21053;-91
2022/02/22 15:12:51;;;;;;;24.50;9.23;;;;;;;4.73;79.83;98768.91;4239932;83;21066;-90
2022/02/22 15:18:52;;;;;;;28.85;9.73;;;;;;;4.64;78.97;98770.41;4305116;81;21007;-91
2022/02/22 15:24:53;;;;;;;24.05;10.60;;;;;;;4.64;79.04;98773.67;4315593;82;21073;-90
2022/02/22 15:30:55;;;;;;;24.82;9.00;;;;;;;4.59;78.74;98782.83;4245817;82;21019;-90
2022/02/22 15:36:57;;;;;;;32.85;10.53;;;;;;;4.55;78.70;98779.80;4327598;81;21077;-89
2022/02/22 15:42:59;;;;;;;27.52;9.88;;;;;;;4.48;78.41;98791.75;4303002;81;21649;-90
2022/02/22 15:49:00;;;;;;;28.67;12.40;;;;;;;4.42;78.29;98795.27;4309449;81;21022;-90
2022/02/22 15:55:02;;;;;;;32.88;11.53;;;;;;;4.40;78.37;98798.88;4354401;81;21054;-89
2022/02/22 16:01:03;;;;;;;30.30;11.38;;;;;;;4.34;78.13;98805.66;4309250;81;21446;-91
2022/02/22 16:07:05;;;;;;;24.15;9.60;;;;;;;4.16;77.97;98805.66;4310277;81;21081;-89
2022/02/22 16:13:07;;;;;;;32.50;9.53;;;;;;;4.02;77.58;98817.92;4310739;81;21093;-90
2022/02/22 16:19:08;;;;;;;26.35;11.03;;;;;;;3.89;77.58;98821.72;4310574;81;21590;-90
2022/02/22 16:25:10;;;;;;;24.20;10.38;;;;;;;3.74;77.42;98834.00;4308819;81;22363;-89
2022/02/22 16:31:14;;;;;;;24.77;9.03;;;;;;;3.64;77.22;98837.67;4314345;81;21573;-90
2022/02/22 16:37:16;;;;;;;25.35;9.50;;;;;;;3.48;77.23;98846.97;4320569;81;21458;-90
2022/02/22 16:43:23;;;;;;;24.12;8.55;;;;;;;3.40;77.13;98855.17;4268063;82;21034;-90
2022/02/22 16:49:25;;;;;;;29.67;10.23;;;;;;;3.29;77.15;98860.75;4271198;82;21092;-91
2022/02/22 16:55:26;;;;;;;30.48;11.25;;;;;;;3.14;77.25;98868.34;4278674;82;21552;-90
2022/02/22 17:01:31;;;;;;;27.67;10.80;;;;;;;3.07;77.20;98865.90;4309933;81;21066;-90
2022/02/22 17:07:31;;;;;;;28.00;10.40;;;;;;;3.15;77.02;98880.73;4310368;80;21070;-89
2022/02/22 17:13:32;;;;;;;35.30;9.73;;;;;;;3.23;76.61;98881.78;4310483;82;21066;-90
2022/02/22 17:19:33;;;;;;;20.32;7.90;;;;;;;3.28;76.33;98887.01;4310400;82;21101;-88
2022/02/22 17:25:35;;;;;;;24.85;8.58;;;;;;;3.22;76.30;98893.73;4309955;82;21027;-90
2022/02/22 17:31:36;;;;;;;28.52;7.45;;;;;;;3.20;76.21;98896.77;4326791;79;21025;-89
2022/02/22 17:37:38;;;;;;;23.95;7.47;;;;;;;3.23;76.01;98907.48;4403775;80;21109;-89
2022/02/22 17:43:40;;;;;;;20.88;7.83;;;;;;;3.26;75.52;98910.88;4389308;80;21035;-89
2022/02/22 17:49:42;;;;;;;23.92;7.58;;;;;;;3.28;75.62;98918.67;4385125;80;21061;-89
2022/02/22 17:55:43;;;;;;;18.12;6.70;;;;;;;3.29;75.47;98922.98;4381491;80;21543;-90
2022/02/22 18:01:48;;;;;;;27.60;8.15;;;;;;;3.27;75.69;98921.16;4396597;80;21055;-89
2022/02/22 18:07:50;;;;;;;20.20;6.47;;;;;;;3.28;75.36;98937.05;4395695;80;21698;-89
2022/02/22 18:13:51;;;;;;;21.23;6.83;;;;;;;3.26;75.44;98937.16;4389510;80;21683;-90
2022/02/22 18:19:52;;;;;;;20.77;6.95;;;;;;;3.21;75.16;98940.28;4393600;80;22242;-91
2022/02/22 18:25:54;;;;;;;20.23;7.33;;;;;;;3.12;75.10;98940.09;4397256;80;21114;-91
2022/02/22 18:31:55;;;;;;;17.65;6.22;;;;;;;3.06;74.98;98946.81;4387443;80;21653;-89
2022/02/22 18:37:56;;;;;;;22.93;5.53;;;;;;;2.97;75.13;98959.05;4297270;82;21039;-89
2022/02/22 18:43:58;;;;;;;17.00;5.22;;;;;;;2.94;75.24;98960.25;4302597;81;21114;-91
2022/02/22 18:50:00;;;;;;;18.75;5.62;;;;;;;2.92;75.32;98960.57;4274635;82;21080;-90
2022/02/22 18:56:02;;;;;;;20.10;5.67;;;;;;;2.89;75.48;98969.34;4274957;82;21055;-90
2022/02/22 19:02:05;;;;;;;20.77;5.87;;;;;;;2.83;75.55;98974.70;4274865;82;21087;-89
2022/02/22 19:08:06;;;;;;;20.95;6.78;;;;;;;2.78;75.67;98964.05;4297189;81;21074;-89
2022/02/22 19:14:08;;;;;;;23.95;6.08;;;;;;;2.73;75.76;98976.94;4273544;82;21084;-90
2022/02/22 19:20:11;;;;;;;23.00;6.85;;;;;;;2.70;75.78;98977.59;4274408;82;21611;-89
2022/02/22 19:26:13;;;;;;;23.27;6.60;;;;;;;2.66;75.85;98976.66;4273638;82;21115;-90
2022/02/22 19:32:16;;;;;;;24.70;7.08;;;;;;;2.57;75.88;98975.33;4273994;82;22495;-92
2022/02/22 19:38:17;;;;;;;24.43;6.58;;;;;;;2.51;76.02;98982.03;4271798;82;21091;-89
2022/02/22 19:44:19;;;;;;;22.00;7.00;;;;;;;2.45;76.08;98982.52;4272615;82;22135;-89
2022/02/22 19:50:20;;;;;;;22.32;6.22;;;;;;;2.38;76.23;98980.88;4274439;82;21591;-91
2022/02/22 19:56:22;;;;;;;32.35;7.62;;;;;;;2.39;76.23;98990.56;4274230;82;21079;-89
2022/02/22 20:02:24;;;;;;;36.95;7.35;;;;;;;2.42;76.35;98996.13;4272550;82;21067;-90
2022/02/22 20:08:25;;;;;;;18.10;6.35;;;;;;;2.43;76.55;98990.94;4273555;82;21055;-90
2022/02/22 20:14:30;;;;;;;26.75;7.22;;;;;;;2.45;76.60;98990.62;4272871;82;21578;-90
2022/02/22 20:20:30;;;;;;;29.10;7.72;;;;;;;2.48;76.67;99000.23;4345128;82;21122;-90
2022/02/22 20:26:31;;;;;;;27.60;8.08;;;;;;;2.52;76.85;99005.22;4346471;81;21078;-89
2022/02/22 20:32:33;;;;;;;28.45;8.88;;;;;;;2.53;76.79;98993.31;4345398;81;22354;-90
2022/02/22 20:38:35;;;;;;;20.30;7.08;;;;;;;2.57;76.84;98996.95;4314073;81;21097;-88
2022/02/22 20:44:37;;;;;;;29.50;9.20;;;;;;;2.64;76.77;99000.51;4345602;81;21026;-89
2022/02/22 20:50:42;;;;;;;28.67;9.28;;;;;;;2.68;76.71;99000.09;4350168;81;21014;-90
2022/02/22 20:56:41;;;;;;;27.27;7.65;;;;;;;2.69;76.73;98990.30;4332792;81;21049;-89
2022/02/22 21:02:43;;;;;;;26.52;7.80;;;;;;;2.67;76.64;98991.75;4348407;81;21046;-90
2022/02/22 21:08:44;;;;;;;23.90;7.83;;;;;;;2.64;76.53;98992.41;4387677;81;22108;-90
2022/02/22 21:14:46;;;;;;;24.82;8.18;;;;;;;2.57;76.57;98991.55;4386554;79;21101;-88
2022/02/22 21:20:47;;;;;;;30.52;9.33;;;;;;;2.54;76.62;98988.69;4388012;79;21054;-88
2022/02/22 21:26:49;;;;;;;24.12;9.75;;;;;;;2.51;76.96;98985.28;4386253;79;21101;-89
2022/02/22 21:32:50;;;;;;;32.63;12.28;;;;;;;2.51;77.02;98982.03;4403759;78;21545;-89
2022/02/22 21:38:51;;;;;;;37.98;12.35;;;;;;;2.53;77.25;98989.81;4406410;79;21006;-90
2022/02/22 21:44:53;;;;;;;29.37;11.25;;;;;;;2.56;77.30;98998.62;4408212;79;21089;-91
2022/02/22 21:50:54;;;;;;;33.78;11.40;;;;;;;2.59;77.32;99000.13;4408319;80;21497;-89
2022/02/22 21:56:59;;;;;;;38.23;11.50;;;;;;;2.60;77.44;98997.65;4408545;80;21478;-90
2022/02/22 22:02:59;;;;;;;33.85;12.35;;;;;;;2.61;77.48;98992.50;4410797;79;21076;-90
2022/02/22 22:09:00;;;;;;;31.40;12.18;;;;;;;2.61;77.61;98993.85;4411332;79;21601;-89
2022/02/22 22:15:03;;;;;;;28.27;11.03;;;;;;;2.63;77.66;98994.87;4412498;80;21100;-89
2022/02/22 22:21:04;;;;;;;38.30;12.73;;;;;;;2.64;77.66;98999.96;4413238;79;21045;-89
2022/02/22 22:27:06;;;;;;;27.80;10.63;;;;;;;2.65;77.75;99000.19;4313999;82;22187;-90
2022/02/22 22:33:07;;;;;;;29.05;9.80;;;;;;;2.59;77.80;99011.48;4320791;82;21066;-90
2022/02/22 22:39:09;;;;;;;26.95;10.08;;;;;;;2.48;77.89;99000.78;4398555;80;21040;-90
2022/02/22 22:45:10;;;;;;;26.60;10.35;;;;;;;2.41;78.01;99001.84;4406637;80;21584;-91
2022/02/22 22:51:12;;;;;;;28.15;10.20;;;;;;;2.30;77.85;99004.07;4411544;79;21033;-89
2022/02/22 22:57:13;;;;;;;29.20;9.93;;;;;;;2.13;77.88;99006.02;4406104;80;21544;-90
2022/02/22 23:03:15;;;;;;;31.55;10.60;;;;;;;1.94;77.82;99000.95;4410318;80;21065;-89
2022/02/22 23:15:38;;;;;;;26.90;9.48;;;;;;;1.61;78.05;98994.43;4424706;79;21584;-89
2022/02/22 23:21:40;;;;;;;26.35;9.43;;;;;;;1.50;78.24;98995.27;4411812;80;21078;-89
2022/02/22 23:27:41;;;;;;;32.15;9.78;;;;;;;1.39;78.15;98985.89;4397635;80;21010;-90
2022/02/22 23:33:42;;;;;;;24.02;9.88;;;;;;;1.32;78.31;98990.97;4398037;80;21636;-88
2022/02/22 23:39:44;;;;;;;25.62;9.08;;;;;;;1.28;78.70;98983.28;4397670;80;22046;-89
2022/02/22 23:45:46;;;;;;;28.92;9.53;;;;;;;1.31;78.64;98978.60;4396543;80;21054;-90
2022/02/22 23:51:47;;;;;;;29.98;9.20;;;;;;;1.37;78.44;98959.00;4320589;81;21123;-90
2022/02/22 23:57:50;;;;;;;24.15;8.88;;;;;;;1.51;78.45;98951.56;4327575;81;21354;-89
